Time;durP1;ratioP1;P1;durP2;ratioP2;P2;SDS_P1;SDS_P2;PMS_P1;PMS_P2;Temp;Humidity;BMP_temperature;BMP_pressure;BME280_temperature;BME280_humidity;BME280_pressure;Samples;Min_cycle;Max_cycle;Signal;HPM_P1;HPM_P2
2021/03/10 00:01:01;;;;;;;13.63;11.43;;;6.6;99.9;;;;;;;;;
2021/03/10 00:02:01;;;;;;;12.83;10.83;;;6.6;99.9;;;;;;;;;
2021/03/10 00:03:01;;;;;;;15.93;11.37;;;6.6;99.9;;;;;;;;;
2021/03/10 00:03:12;;;;;;;15.93;11.37;;;6.6;99.9;;;;;;;;;
2021/03/10 00:04:01;;;;;;;16.57;11.83;;;6.6;99.9;;;;;;;;;
2021/03/10 00:04:13;;;;;;;16.57;11.83;;;6.6;99.9;;;;;;;;;
2021/03/10 00:05:01;;;;;;;15.47;11.73;;;6.7;99.9;;;;;;;;;
2021/03/10 00:05:15;;;;;;;15.47;11.73;;;6.7;99.9;;;;;;;;;
2021/03/10 00:05:25;;;;;;;13.43;11.73;;;6.7;99.9;;;;;;;;;
2021/03/10 00:06:01;;;;;;;13.43;11.73;;;6.7;99.9;;;;;;;;;
2021/03/10 00:06:16;;;;;;;13.43;11.73;;;6.7;99.9;;;;;;;;;
2021/03/10 00:06:26;;;;;;;13.67;10.93;;;6.6;99.9;;;;;;;;;
2021/03/10 00:07:04;;;;;;;13.67;10.93;;;6.6;99.9;;;;;;;;;
2021/03/10 00:07:12;;;;;;;13.67;10.93;;;6.6;99.9;;;;;;;;;
2021/03/10 00:07:28;;;;;;;14.37;11.6;;;6.6;99.9;;;;;;;;;
2021/03/10 00:07:38;;;;;;;14.37;11.6;;;6.6;99.9;;;;;;;;;
2021/03/10 00:08:03;;;;;;;14.37;11.6;;;6.6;99.9;;;;;;;;;
2021/03/10 00:08:14;;;;;;;14.37;11.6;;;6.6;99.9;;;;;;;;;
2021/03/10 00:08:29;;;;;;;16.17;13.03;;;6.6;99.9;;;;;;;;;
2021/03/10 00:08:40;;;;;;;16.17;13.03;;;6.6;99.9;;;;;;;;;
2021/03/10 00:09:01;;;;;;;16.17;13.03;;;6.6;99.9;;;;;;;;;
2021/03/10 00:09:15;;;;;;;16.17;13.03;;;6.6;99.9;;;;;;;;;
2021/03/10 00:09:26;;;;;;;14.17;12.13;;;6.6;99.9;;;;;;;;;
2021/03/10 00:09:41;;;;;;;14.17;12.13;;;6.6;99.9;;;;;;;;;
2021/03/10 00:09:51;;;;;;;14.17;12.13;;;6.6;99.9;;;;;;;;;
2021/03/10 00:10:01;;;;;;;14.17;12.13;;;6.6;99.9;;;;;;;;;
2021/03/10 00:10:17;;;;;;;14.17;12.13;;;6.6;99.9;;;;;;;;;
2021/03/10 00:10:27;;;;;;;16.17;12.5;;;6.5;99.9;;;;;;;;;
2021/03/10 00:10:42;;;;;;;16.17;12.5;;;6.5;99.9;;;;;;;;;
2021/03/10 00:10:53;;;;;;;16.17;12.5;;;6.5;99.9;;;;;;;;;
2021/03/10 00:11:01;;;;;;;16.17;12.5;;;6.5;99.9;;;;;;;;;
2021/03/10 00:11:13;;;;;;;16.17;12.5;;;6.5;99.9;;;;;;;;;
2021/03/10 00:11:28;;;;;;;13.77;11.8;;;6.6;99.9;;;;;;;;;
2021/03/10 00:11:39;;;;;;;13.77;11.8;;;6.6;99.9;;;;;;;;;
2021/03/10 00:11:54;;;;;;;13.77;11.8;;;6.6;99.9;;;;;;;;;
2021/03/10 00:12:01;;;;;;;13.77;11.8;;;6.6;99.9;;;;;;;;;
2021/03/10 00:12:04;;;;;;;13.77;11.8;;;6.6;99.9;;;;;;;;;
2021/03/10 00:12:15;;;;;;;13.77;11.8;;;6.6;99.9;;;;;;;;;
2021/03/10 00:12:30;;;;;;;16.2;12.6;;;6.6;99.9;;;;;;;;;
2021/03/10 00:12:40;;;;;;;16.2;12.6;;;6.6;99.9;;;;;;;;;
2021/03/10 00:12:55;;;;;;;16.2;12.6;;;6.6;99.9;;;;;;;;;
2021/03/10 00:13:01;;;;;;;16.2;12.6;;;6.6;99.9;;;;;;;;;
2021/03/10 00:13:06;;;;;;;16.2;12.6;;;6.6;99.9;;;;;;;;;
2021/03/10 00:13:16;;;;;;;16.2;12.6;;;6.6;99.9;;;;;;;;;
2021/03/10 00:13:26;;;;;;;16.23;12.87;;;6.7;99.9;;;;;;;;;
2021/03/10 00:13:42;;;;;;;16.23;12.87;;;6.7;99.9;;;;;;;;;
2021/03/10 00:13:52;;;;;;;16.23;12.87;;;6.7;99.9;;;;;;;;;
2021/03/10 00:14:01;;;;;;;16.23;12.87;;;6.7;99.9;;;;;;;;;
2021/03/10 00:14:07;;;;;;;16.23;12.87;;;6.7;99.9;;;;;;;;;
2021/03/10 00:14:12;;;;;;;16.23;12.87;;;6.7;99.9;;;;;;;;;
2021/03/10 00:14:28;;;;;;;17.1;13;;;6.7;99.9;;;;;;;;;
2021/03/10 00:14:43;;;;;;;17.1;13;;;6.7;99.9;;;;;;;;;
2021/03/10 00:14:53;;;;;;;17.1;13;;;6.7;99.9;;;;;;;;;
2021/03/10 00:15:02;;;;;;;17.1;13;;;6.7;99.9;;;;;;;;;
2021/03/10 00:15:09;;;;;;;17.1;13;;;6.7;99.9;;;;;;;;;
2021/03/10 00:15:14;;;;;;;17.1;13;;;6.7;99.9;;;;;;;;;
2021/03/10 00:15:29;;;;;;;14.5;11.93;;;6.7;99.9;;;;;;;;;
2021/03/10 00:15:39;;;;;;;14.5;11.93;;;6.7;99.9;;;;;;;;;
2021/03/10 00:15:55;;;;;;;14.5;11.93;;;6.7;99.9;;;;;;;;;
2021/03/10 00:16:01;;;;;;;14.5;11.93;;;6.7;99.9;;;;;;;;;
2021/03/10 00:16:05;;;;;;;14.5;11.93;;;6.7;99.9;;;;;;;;;
2021/03/10 00:16:15;;;;;;;14.5;11.93;;;6.7;99.9;;;;;;;;;
2021/03/10 00:16:25;;;;;;;14.5;11.93;;;6.7;99.9;;;;;;;;;
2021/03/10 00:16:41;;;;;;;15.13;12.27;;;6.6;99.9;;;;;;;;;
2021/03/10 00:16:56;;;;;;;15.13;12.27;;;6.6;99.9;;;;;;;;;
2021/03/10 00:17:02;;;;;;;15.13;12.27;;;6.6;99.9;;;;;;;;;
2021/03/10 00:17:06;;;;;;;15.13;12.27;;;6.6;99.9;;;;;;;;;
2021/03/10 00:17:17;;;;;;;15.13;12.27;;;6.6;99.9;;;;;;;;;
2021/03/10 00:17:27;;;;;;;14.97;12.23;;;6.7;99.9;;;;;;;;;
2021/03/10 00:17:43;;;;;;;14.97;12.23;;;6.7;99.9;;;;;;;;;
2021/03/10 00:17:52;;;;;;;14.97;12.23;;;6.7;99.9;;;;;;;;;
2021/03/10 00:18:01;;;;;;;14.97;12.23;;;6.7;99.9;;;;;;;;;
2021/03/10 00:18:08;;;;;;;14.97;12.23;;;6.7;99.9;;;;;;;;;
2021/03/10 00:18:13;;;;;;;14.97;12.23;;;6.7;99.9;;;;;;;;;
2021/03/10 00:18:28;;;;;;;13.67;12.13;;;6.7;99.9;;;;;;;;;
2021/03/10 00:18:39;;;;;;;13.67;12.13;;;6.7;99.9;;;;;;;;;
2021/03/10 00:18:54;;;;;;;13.67;12.13;;;6.7;99.9;;;;;;;;;
2021/03/10 00:19:02;;;;;;;13.67;12.13;;;6.7;99.9;;;;;;;;;
2021/03/10 00:19:09;;;;;;;13.67;12.13;;;6.7;99.9;;;;;;;;;
2021/03/10 00:19:14;;;;;;;13.67;12.13;;;6.7;99.9;;;;;;;;;
2021/03/10 00:19:30;;;;;;;14.1;12.43;;;6.7;99.9;;;;;;;;;
2021/03/10 00:19:40;;;;;;;14.1;12.43;;;6.7;99.9;;;;;;;;;
2021/03/10 00:19:55;;;;;;;14.1;12.43;;;6.7;99.9;;;;;;;;;
2021/03/10 00:20:02;;;;;;;14.1;12.43;;;6.7;99.9;;;;;;;;;
2021/03/10 00:20:06;;;;;;;14.1;12.43;;;6.7;99.9;;;;;;;;;
2021/03/10 00:20:17;;;;;;;14.1;12.43;;;6.7;99.9;;;;;;;;;
2021/03/10 00:20:26;;;;;;;14.1;12.43;;;6.7;99.9;;;;;;;;;
2021/03/10 00:20:41;;;;;;;15.17;12.57;;;6.7;99.9;;;;;;;;;
2021/03/10 00:20:52;;;;;;;15.17;12.57;;;6.7;99.9;;;;;;;;;
2021/03/10 00:21:02;;;;;;;15.17;12.57;;;6.7;99.9;;;;;;;;;
2021/03/10 00:21:07;;;;;;;15.17;12.57;;;6.7;99.9;;;;;;;;;
2021/03/10 00:21:12;;;;;;;15.17;12.57;;;6.7;99.9;;;;;;;;;
2021/03/10 00:21:28;;;;;;;13.73;12.33;;;6.8;99.9;;;;;;;;;
2021/03/10 00:21:43;;;;;;;13.73;12.33;;;6.8;99.9;;;;;;;;;
2021/03/10 00:21:53;;;;;;;13.73;12.33;;;6.8;99.9;;;;;;;;;
2021/03/10 00:22:02;;;;;;;13.73;12.33;;;6.8;99.9;;;;;;;;;
2021/03/10 00:22:08;;;;;;;13.73;12.33;;;6.8;99.9;;;;;;;;;
2021/03/10 00:22:15;;;;;;;13.73;12.33;;;6.8;99.9;;;;;;;;;
2021/03/10 00:22:29;;;;;;;14.7;12.83;;;6.8;99.9;;;;;;;;;
2021/03/10 00:22:39;;;;;;;14.7;12.83;;;6.8;99.9;;;;;;;;;
2021/03/10 00:22:55;;;;;;;14.7;12.83;;;6.8;99.9;;;;;;;;;
2021/03/10 00:23:01;;;;;;;14.7;12.83;;;6.8;99.9;;;;;;;;;
2021/03/10 00:23:05;;;;;;;14.7;12.83;;;6.8;99.9;;;;;;;;;
2021/03/10 00:23:15;;;;;;;14.7;12.83;;;6.8;99.9;;;;;;;;;
2021/03/10 00:23:25;;;;;;;14.7;12.83;;;6.8;99.9;;;;;;;;;
2021/03/10 00:23:41;;;;;;;16.03;13;;;6.9;99.9;;;;;;;;;
2021/03/10 00:23:56;;;;;;;16.03;13;;;6.9;99.9;;;;;;;;;
2021/03/10 00:24:02;;;;;;;16.03;13;;;6.9;99.9;;;;;;;;;
2021/03/10 00:24:06;;;;;;;16.03;13;;;6.9;99.9;;;;;;;;;
2021/03/10 00:24:16;;;;;;;16.03;13;;;6.9;99.9;;;;;;;;;
2021/03/10 00:24:27;;;;;;;16.03;13;;;6.9;99.9;;;;;;;;;
2021/03/10 00:24:42;;;;;;;14.97;12.6;;;6.9;99.9;;;;;;;;;
2021/03/10 00:24:52;;;;;;;14.97;12.6;;;6.9;99.9;;;;;;;;;
2021/03/10 00:25:02;;;;;;;14.97;12.6;;;6.9;99.9;;;;;;;;;
2021/03/10 00:25:08;;;;;;;14.97;12.6;;;6.9;99.9;;;;;;;;;
2021/03/10 00:25:13;;;;;;;14.97;12.6;;;6.9;99.9;;;;;;;;;
2021/03/10 00:25:28;;;;;;;14.97;12.6;;;6.9;99.9;;;;;;;;;
2021/03/10 00:25:38;;;;;;;14.4;12.3;;;7;99.9;;;;;;;;;
2021/03/10 00:25:54;;;;;;;14.4;12.3;;;7;99.9;;;;;;;;;
2021/03/10 00:26:02;;;;;;;14.4;12.3;;;7;99.9;;;;;;;;;
2021/03/10 00:26:09;;;;;;;14.4;12.3;;;7;99.9;;;;;;;;;
2021/03/10 00:26:14;;;;;;;14.4;12.3;;;7;99.9;;;;;;;;;
2021/03/10 00:26:30;;;;;;;14.73;12.9;;;7;99.9;;;;;;;;;
2021/03/10 00:26:40;;;;;;;14.73;12.9;;;7;99.9;;;;;;;;;
2021/03/10 00:26:55;;;;;;;14.73;12.9;;;7;99.9;;;;;;;;;
2021/03/10 00:27:02;;;;;;;14.73;12.9;;;7;99.9;;;;;;;;;
2021/03/10 00:27:06;;;;;;;14.73;12.9;;;7;99.9;;;;;;;;;
2021/03/10 00:27:23;;;;;;;14.73;12.9;;;7;99.9;;;;;;;;;
2021/03/10 00:27:26;;;;;;;14.73;12.9;;;7;99.9;;;;;;;;;
2021/03/10 00:27:41;;;;;;;15.13;12.17;;;7.1;99.9;;;;;;;;;
2021/03/10 00:27:51;;;;;;;15.13;12.17;;;7.1;99.9;;;;;;;;;
2021/03/10 00:28:01;;;;;;;15.13;12.17;;;7.1;99.9;;;;;;;;;
2021/03/10 00:28:09;;;;;;;15.13;12.17;;;7.1;99.9;;;;;;;;;
2021/03/10 00:28:12;;;;;;;15.13;12.17;;;7.1;99.9;;;;;;;;;
2021/03/10 00:28:27;;;;;;;15.13;12.17;;;7.1;99.9;;;;;;;;;
2021/03/10 00:28:43;;;;;;;15.87;13.87;;;7.1;99.9;;;;;;;;;
2021/03/10 00:28:53;;;;;;;15.87;13.87;;;7.1;99.9;;;;;;;;;
2021/03/10 00:29:02;;;;;;;15.87;13.87;;;7.1;99.9;;;;;;;;;
2021/03/10 00:29:08;;;;;;;15.87;13.87;;;7.1;99.9;;;;;;;;;
2021/03/10 00:29:13;;;;;;;15.87;13.87;;;7.1;99.9;;;;;;;;;
2021/03/10 00:29:34;;;;;;;16.17;12.67;;;7.1;99.9;;;;;;;;;
2021/03/10 00:29:39;;;;;;;16.17;12.67;;;7.1;99.9;;;;;;;;;
2021/03/10 00:29:54;;;;;;;16.17;12.67;;;7.1;99.9;;;;;;;;;
2021/03/10 00:30:02;;;;;;;16.17;12.67;;;7.1;99.9;;;;;;;;;
2021/03/10 00:30:05;;;;;;;16.17;12.67;;;7.1;99.9;;;;;;;;;
2021/03/10 00:30:16;;;;;;;16.17;12.67;;;7.1;99.9;;;;;;;;;
2021/03/10 00:30:25;;;;;;;16.17;12.67;;;7.1;99.9;;;;;;;;;
2021/03/10 00:30:40;;;;;;;13.93;11.93;;;7;99.9;;;;;;;;;
2021/03/10 00:30:56;;;;;;;13.93;11.93;;;7;99.9;;;;;;;;;
2021/03/10 00:31:02;;;;;;;13.93;11.93;;;7;99.9;;;;;;;;;
2021/03/10 00:31:06;;;;;;;13.93;11.93;;;7;99.9;;;;;;;;;
2021/03/10 00:31:16;;;;;;;13.93;11.93;;;7;99.9;;;;;;;;;
2021/03/10 00:31:27;;;;;;;13.93;11.93;;;7;99.9;;;;;;;;;
2021/03/10 00:31:47;;;;;;;14.37;12.7;;;7;99.9;;;;;;;;;
2021/03/10 00:31:52;;;;;;;14.37;12.7;;;7;99.9;;;;;;;;;
2021/03/10 00:32:02;;;;;;;14.37;12.7;;;7;99.9;;;;;;;;;
2021/03/10 00:32:07;;;;;;;14.37;12.7;;;7;99.9;;;;;;;;;
2021/03/10 00:32:18;;;;;;;14.37;12.7;;;7;99.9;;;;;;;;;
2021/03/10 00:32:28;;;;;;;14.37;12.7;;;7;99.9;;;;;;;;;
2021/03/10 00:32:38;;;;;;;16.1;12.8;;;7;99.9;;;;;;;;;
2021/03/10 00:32:54;;;;;;;16.1;12.8;;;7;99.9;;;;;;;;;
2021/03/10 00:33:01;;;;;;;16.1;12.8;;;7;99.9;;;;;;;;;
2021/03/10 00:33:09;;;;;;;16.1;12.8;;;7;99.9;;;;;;;;;
2021/03/10 00:33:14;;;;;;;16.1;12.8;;;7;99.9;;;;;;;;;
2021/03/10 00:33:29;;;;;;;16.1;12.8;;;7;99.9;;;;;;;;;
2021/03/10 00:33:40;;;;;;;15.33;12.67;;;7;99.9;;;;;;;;;
2021/03/10 00:34:00;;;;;;;15.33;12.67;;;7;99.9;;;;;;;;;
2021/03/10 00:34:02;;;;;;;15.33;12.67;;;7;99.9;;;;;;;;;
2021/03/10 00:34:05;;;;;;;15.33;12.67;;;7;99.9;;;;;;;;;
2021/03/10 00:34:15;;;;;;;15.33;12.67;;;7;99.9;;;;;;;;;
2021/03/10 00:34:31;;;;;;;15.33;12.67;;;7;99.9;;;;;;;;;
2021/03/10 00:34:41;;;;;;;16.67;13.57;;;6.9;99.9;;;;;;;;;
2021/03/10 00:34:51;;;;;;;16.67;13.57;;;6.9;99.9;;;;;;;;;
2021/03/10 00:35:02;;;;;;;16.67;13.57;;;6.9;99.9;;;;;;;;;
2021/03/10 00:35:07;;;;;;;16.67;13.57;;;6.9;99.9;;;;;;;;;
2021/03/10 00:35:12;;;;;;;16.67;13.57;;;6.9;99.9;;;;;;;;;
2021/03/10 00:35:27;;;;;;;16.67;13.57;;;6.9;99.9;;;;;;;;;
2021/03/10 00:35:43;;;;;;;17.33;13.07;;;6.9;99.9;;;;;;;;;
2021/03/10 00:35:53;;;;;;;17.33;13.07;;;6.9;99.9;;;;;;;;;
2021/03/10 00:36:02;;;;;;;17.33;13.07;;;6.9;99.9;;;;;;;;;
2021/03/10 00:36:13;;;;;;;17.33;13.07;;;6.9;99.9;;;;;;;;;
2021/03/10 00:36:18;;;;;;;17.33;13.07;;;6.9;99.9;;;;;;;;;
2021/03/10 00:36:29;;;;;;;17.33;13.07;;;6.9;99.9;;;;;;;;;
2021/03/10 00:36:44;;;;;;;16.23;12.63;;;7;99.9;;;;;;;;;
2021/03/10 00:36:54;;;;;;;16.23;12.63;;;7;99.9;;;;;;;;;
2021/03/10 00:37:02;;;;;;;16.23;12.63;;;7;99.9;;;;;;;;;
2021/03/10 00:37:04;;;;;;;16.23;12.63;;;7;99.9;;;;;;;;;
2021/03/10 00:37:15;;;;;;;16.23;12.63;;;7;99.9;;;;;;;;;
2021/03/10 00:37:25;;;;;;;16.23;12.63;;;7;99.9;;;;;;;;;
2021/03/10 00:37:40;;;;;;;20.17;13.23;;;7;99.9;;;;;;;;;
2021/03/10 00:37:56;;;;;;;20.17;13.23;;;7;99.9;;;;;;;;;
2021/03/10 00:38:01;;;;;;;20.17;13.23;;;7;99.9;;;;;;;;;
2021/03/10 00:38:06;;;;;;;20.17;13.23;;;7;99.9;;;;;;;;;
2021/03/10 00:38:16;;;;;;;20.17;13.23;;;7;99.9;;;;;;;;;
2021/03/10 00:38:26;;;;;;;20.17;13.23;;;7;99.9;;;;;;;;;
2021/03/10 00:38:42;;;;;;;18.37;14.1;;;7.1;99.9;;;;;;;;;
2021/03/10 00:38:57;;;;;;;18.37;14.1;;;7.1;99.9;;;;;;;;;
2021/03/10 00:39:02;;;;;;;18.37;14.1;;;7.1;99.9;;;;;;;;;
2021/03/10 00:39:07;;;;;;;18.37;14.1;;;7.1;99.9;;;;;;;;;
2021/03/10 00:39:12;;;;;;;18.37;14.1;;;7.1;99.9;;;;;;;;;
2021/03/10 00:39:28;;;;;;;18.37;14.1;;;7.1;99.9;;;;;;;;;
2021/03/10 00:39:38;;;;;;;16.17;13.17;;;7;99.9;;;;;;;;;
2021/03/10 00:39:53;;;;;;;16.17;13.17;;;7;99.9;;;;;;;;;
2021/03/10 00:40:02;;;;;;;16.17;13.17;;;7;99.9;;;;;;;;;
2021/03/10 00:40:11;;;;;;;16.17;13.17;;;7;99.9;;;;;;;;;
2021/03/10 00:40:14;;;;;;;16.17;13.17;;;7;99.9;;;;;;;;;
2021/03/10 00:40:29;;;;;;;16.17;13.17;;;7;99.9;;;;;;;;;
2021/03/10 00:40:40;;;;;;;14.9;12.77;;;7;99.9;;;;;;;;;
2021/03/10 00:40:55;;;;;;;14.9;12.77;;;7;99.9;;;;;;;;;
2021/03/10 00:41:02;;;;;;;14.9;12.77;;;7;99.9;;;;;;;;;
2021/03/10 00:41:10;;;;;;;14.9;12.77;;;7;99.9;;;;;;;;;
2021/03/10 00:41:15;;;;;;;14.9;12.77;;;7;99.9;;;;;;;;;
2021/03/10 00:41:26;;;;;;;14.9;12.77;;;7;99.9;;;;;;;;;
2021/03/10 00:41:41;;;;;;;18.47;13.53;;;7;99.9;;;;;;;;;
2021/03/10 00:41:51;;;;;;;18.47;13.53;;;7;99.9;;;;;;;;;
2021/03/10 00:42:02;;;;;;;18.47;13.53;;;7;99.9;;;;;;;;;
2021/03/10 00:42:07;;;;;;;18.47;13.53;;;7;99.9;;;;;;;;;
2021/03/10 00:42:17;;;;;;;18.47;13.53;;;7;99.9;;;;;;;;;
2021/03/10 00:42:27;;;;;;;18.47;13.53;;;7;99.9;;;;;;;;;
2021/03/10 00:42:42;;;;;;;17.4;13.43;;;7;99.9;;;;;;;;;
2021/03/10 00:42:53;;;;;;;17.4;13.43;;;7;99.9;;;;;;;;;
2021/03/10 00:43:01;;;;;;;17.4;13.43;;;7;99.9;;;;;;;;;
2021/03/10 00:43:08;;;;;;;17.4;13.43;;;7;99.9;;;;;;;;;
2021/03/10 00:43:13;;;;;;;17.4;13.43;;;7;99.9;;;;;;;;;
2021/03/10 00:43:28;;;;;;;17.4;13.43;;;7;99.9;;;;;;;;;
2021/03/10 00:43:39;;;;;;;16.47;13.9;;;7;99.9;;;;;;;;;
2021/03/10 00:43:54;;;;;;;16.47;13.9;;;7;99.9;;;;;;;;;
2021/03/10 00:44:02;;;;;;;16.47;13.9;;;7;99.9;;;;;;;;;
2021/03/10 00:44:04;;;;;;;16.47;13.9;;;7;99.9;;;;;;;;;
2021/03/10 00:44:15;;;;;;;16.47;13.9;;;7;99.9;;;;;;;;;
2021/03/10 00:44:30;;;;;;;16.47;13.9;;;7;99.9;;;;;;;;;
2021/03/10 00:44:40;;;;;;;17.3;13.67;;;7;99.9;;;;;;;;;
2021/03/10 00:44:56;;;;;;;17.3;13.67;;;7;99.9;;;;;;;;;
2021/03/10 00:45:01;;;;;;;17.3;13.67;;;7;99.9;;;;;;;;;
2021/03/10 00:45:06;;;;;;;17.3;13.67;;;7;99.9;;;;;;;;;
2021/03/10 00:45:16;;;;;;;17.3;13.67;;;7;99.9;;;;;;;;;
2021/03/10 00:45:27;;;;;;;17.3;13.67;;;7;99.9;;;;;;;;;
2021/03/10 00:45:42;;;;;;;17.6;13.7;;;7;99.9;;;;;;;;;
2021/03/10 00:45:52;;;;;;;17.6;13.7;;;7;99.9;;;;;;;;;
2021/03/10 00:46:02;;;;;;;17.6;13.7;;;7;99.9;;;;;;;;;
2021/03/10 00:46:07;;;;;;;17.6;13.7;;;7;99.9;;;;;;;;;
2021/03/10 00:46:12;;;;;;;17.6;13.7;;;7;99.9;;;;;;;;;
2021/03/10 00:46:28;;;;;;;17.6;13.7;;;7;99.9;;;;;;;;;
2021/03/10 00:46:43;;;;;;;17;14.2;;;6.9;99.9;;;;;;;;;
2021/03/10 00:46:53;;;;;;;17;14.2;;;6.9;99.9;;;;;;;;;
2021/03/10 00:47:02;;;;;;;17;14.2;;;6.9;99.9;;;;;;;;;
2021/03/10 00:47:09;;;;;;;17;14.2;;;6.9;99.9;;;;;;;;;
2021/03/10 00:47:14;;;;;;;17;14.2;;;6.9;99.9;;;;;;;;;
2021/03/10 00:47:29;;;;;;;17;14.2;;;6.9;99.9;;;;;;;;;
2021/03/10 00:47:39;;;;;;;19.6;14.6;;;6.9;99.9;;;;;;;;;
2021/03/10 00:47:55;;;;;;;19.6;14.6;;;6.9;99.9;;;;;;;;;
2021/03/10 00:48:01;;;;;;;19.6;14.6;;;6.9;99.9;;;;;;;;;
2021/03/10 00:48:05;;;;;;;19.6;14.6;;;6.9;99.9;;;;;;;;;
2021/03/10 00:48:15;;;;;;;19.6;14.6;;;6.9;99.9;;;;;;;;;
2021/03/10 00:48:25;;;;;;;19.6;14.6;;;6.9;99.9;;;;;;;;;
2021/03/10 00:48:41;;;;;;;18.4;13.57;;;6.8;99.9;;;;;;;;;
2021/03/10 00:48:56;;;;;;;18.4;13.57;;;6.8;99.9;;;;;;;;;
2021/03/10 00:49:02;;;;;;;18.4;13.57;;;6.8;99.9;;;;;;;;;
2021/03/10 00:49:06;;;;;;;18.4;13.57;;;6.8;99.9;;;;;;;;;
2021/03/10 00:49:17;;;;;;;18.4;13.57;;;6.8;99.9;;;;;;;;;
2021/03/10 00:49:27;;;;;;;18.4;13.57;;;6.8;99.9;;;;;;;;;
2021/03/10 00:49:42;;;;;;;16.97;13.7;;;6.8;99.9;;;;;;;;;
2021/03/10 00:49:52;;;;;;;16.97;13.7;;;6.8;99.9;;;;;;;;;
2021/03/10 00:50:01;;;;;;;16.97;13.7;;;6.8;99.9;;;;;;;;;
2021/03/10 00:50:08;;;;;;;16.97;13.7;;;6.8;99.9;;;;;;;;;
2021/03/10 00:50:13;;;;;;;16.97;13.7;;;6.8;99.9;;;;;;;;;
2021/03/10 00:50:29;;;;;;;16.97;13.7;;;6.8;99.9;;;;;;;;;
2021/03/10 00:50:39;;;;;;;19.83;14.63;;;6.8;99.9;;;;;;;;;
2021/03/10 00:50:54;;;;;;;19.83;14.63;;;6.8;99.9;;;;;;;;;
2021/03/10 00:51:02;;;;;;;19.83;14.63;;;6.8;99.9;;;;;;;;;
2021/03/10 00:51:09;;;;;;;19.83;14.63;;;6.8;99.9;;;;;;;;;
2021/03/10 00:51:14;;;;;;;19.83;14.63;;;6.8;99.9;;;;;;;;;
2021/03/10 00:51:30;;;;;;;19.83;14.63;;;6.8;99.9;;;;;;;;;
2021/03/10 00:51:40;;;;;;;15.67;13.37;;;6.7;99.9;;;;;;;;;
2021/03/10 00:51:55;;;;;;;15.67;13.37;;;6.7;99.9;;;;;;;;;
2021/03/10 00:52:02;;;;;;;15.67;13.37;;;6.7;99.9;;;;;;;;;
2021/03/10 00:52:06;;;;;;;15.67;13.37;;;6.7;99.9;;;;;;;;;
2021/03/10 00:52:16;;;;;;;15.67;13.37;;;6.7;99.9;;;;;;;;;
2021/03/10 00:52:26;;;;;;;15.67;13.37;;;6.7;99.9;;;;;;;;;
2021/03/10 00:52:41;;;;;;;16.67;13.83;;;6.8;99.9;;;;;;;;;
2021/03/10 00:52:52;;;;;;;16.67;13.83;;;6.8;99.9;;;;;;;;;
2021/03/10 00:53:02;;;;;;;16.67;13.83;;;6.8;99.9;;;;;;;;;
2021/03/10 00:53:07;;;;;;;16.67;13.83;;;6.8;99.9;;;;;;;;;
2021/03/10 00:53:12;;;;;;;16.67;13.83;;;6.8;99.9;;;;;;;;;
2021/03/10 00:53:28;;;;;;;16.67;13.83;;;6.8;99.9;;;;;;;;;
2021/03/10 00:53:43;;;;;;;18.63;14.07;;;6.8;99.9;;;;;;;;;
2021/03/10 00:53:53;;;;;;;18.63;14.07;;;6.8;99.9;;;;;;;;;
2021/03/10 00:54:02;;;;;;;18.63;14.07;;;6.8;99.9;;;;;;;;;
2021/03/10 00:54:08;;;;;;;18.63;14.07;;;6.8;99.9;;;;;;;;;
2021/03/10 00:54:14;;;;;;;18.63;14.07;;;6.8;99.9;;;;;;;;;
2021/03/10 00:54:29;;;;;;;18.63;14.07;;;6.8;99.9;;;;;;;;;
2021/03/10 00:54:39;;;;;;;19.8;15.2;;;6.8;99.9;;;;;;;;;
2021/03/10 00:54:55;;;;;;;19.8;15.2;;;6.8;99.9;;;;;;;;;
2021/03/10 00:55:01;;;;;;;19.8;15.2;;;6.8;99.9;;;;;;;;;
2021/03/10 00:55:05;;;;;;;19.8;15.2;;;6.8;99.9;;;;;;;;;
2021/03/10 00:55:15;;;;;;;19.8;15.2;;;6.8;99.9;;;;;;;;;
2021/03/10 00:55:25;;;;;;;19.8;15.2;;;6.8;99.9;;;;;;;;;
2021/03/10 00:55:41;;;;;;;18.17;14;;;6.7;99.9;;;;;;;;;
2021/03/10 00:55:56;;;;;;;18.17;14;;;6.7;99.9;;;;;;;;;
2021/03/10 00:56:02;;;;;;;18.17;14;;;6.7;99.9;;;;;;;;;
2021/03/10 00:56:06;;;;;;;18.17;14;;;6.7;99.9;;;;;;;;;
2021/03/10 00:56:16;;;;;;;18.17;14;;;6.7;99.9;;;;;;;;;
2021/03/10 00:56:27;;;;;;;18.17;14;;;6.7;99.9;;;;;;;;;
2021/03/10 00:56:42;;;;;;;16.97;14.13;;;6.7;99.9;;;;;;;;;
2021/03/10 00:56:52;;;;;;;16.97;14.13;;;6.7;99.9;;;;;;;;;
2021/03/10 00:57:02;;;;;;;16.97;14.13;;;6.7;99.9;;;;;;;;;
2021/03/10 00:57:08;;;;;;;16.97;14.13;;;6.7;99.9;;;;;;;;;
2021/03/10 00:57:13;;;;;;;16.97;14.13;;;6.7;99.9;;;;;;;;;
2021/03/10 00:57:28;;;;;;;16.97;14.13;;;6.7;99.9;;;;;;;;;
2021/03/10 00:57:38;;;;;;;15.87;13.73;;;6.7;99.9;;;;;;;;;
2021/03/10 00:57:54;;;;;;;15.87;13.73;;;6.7;99.9;;;;;;;;;
2021/03/10 00:58:01;;;;;;;15.87;13.73;;;6.7;99.9;;;;;;;;;
2021/03/10 00:58:09;;;;;;;15.87;13.73;;;6.7;99.9;;;;;;;;;
2021/03/10 00:58:14;;;;;;;15.87;13.73;;;6.7;99.9;;;;;;;;;
2021/03/10 00:58:30;;;;;;;15.87;13.73;;;6.7;99.9;;;;;;;;;
2021/03/10 00:58:40;;;;;;;17.3;14.13;;;6.8;99.9;;;;;;;;;
2021/03/10 00:58:55;;;;;;;17.3;14.13;;;6.8;99.9;;;;;;;;;
2021/03/10 00:59:02;;;;;;;17.3;14.13;;;6.8;99.9;;;;;;;;;
2021/03/10 00:59:05;;;;;;;17.3;14.13;;;6.8;99.9;;;;;;;;;
2021/03/10 00:59:16;;;;;;;17.3;14.13;;;6.8;99.9;;;;;;;;;
2021/03/10 00:59:26;;;;;;;17.3;14.13;;;6.8;99.9;;;;;;;;;
2021/03/10 00:59:41;;;;;;;18.1;14.9;;;6.7;99.9;;;;;;;;;
2021/03/10 00:59:51;;;;;;;18.1;14.9;;;6.7;99.9;;;;;;;;;
2021/03/10 01:00:01;;;;;;;18.1;14.9;;;6.7;99.9;;;;;;;;;
2021/03/10 01:00:07;;;;;;;18.1;14.9;;;6.7;99.9;;;;;;;;;
2021/03/10 01:00:12;;;;;;;18.1;14.9;;;6.7;99.9;;;;;;;;;
2021/03/10 01:00:27;;;;;;;18.1;14.9;;;6.7;99.9;;;;;;;;;
2021/03/10 01:00:43;;;;;;;19.43;14.6;;;6.8;99.9;;;;;;;;;
2021/03/10 01:00:53;;;;;;;19.43;14.6;;;6.8;99.9;;;;;;;;;
2021/03/10 01:01:02;;;;;;;19.43;14.6;;;6.8;99.9;;;;;;;;;
2021/03/10 01:01:08;;;;;;;19.43;14.6;;;6.8;99.9;;;;;;;;;
2021/03/10 01:01:13;;;;;;;19.43;14.6;;;6.8;99.9;;;;;;;;;
2021/03/10 01:01:29;;;;;;;19.43;14.6;;;6.8;99.9;;;;;;;;;
2021/03/10 01:01:39;;;;;;;19.43;14.6;;;6.8;99.9;;;;;;;;;
2021/03/10 01:01:54;;;;;;;19.87;15.5;;;6.9;99.9;;;;;;;;;
2021/03/10 01:02:02;;;;;;;19.87;15.5;;;6.9;99.9;;;;;;;;;
2021/03/10 01:02:05;;;;;;;19.87;15.5;;;6.9;99.9;;;;;;;;;
2021/03/10 01:02:15;;;;;;;19.87;15.5;;;6.9;99.9;;;;;;;;;
2021/03/10 01:02:25;;;;;;;19.87;15.5;;;6.9;99.9;;;;;;;;;
2021/03/10 01:02:40;;;;;;;18.83;14.83;;;6.8;99.9;;;;;;;;;
2021/03/10 01:02:56;;;;;;;18.83;14.83;;;6.8;99.9;;;;;;;;;
2021/03/10 01:03:02;;;;;;;18.83;14.83;;;6.8;99.9;;;;;;;;;
2021/03/10 01:03:06;;;;;;;18.83;14.83;;;6.8;99.9;;;;;;;;;
2021/03/10 01:03:16;;;;;;;18.83;14.83;;;6.8;99.9;;;;;;;;;
2021/03/10 01:03:27;;;;;;;18.83;14.83;;;6.8;99.9;;;;;;;;;
2021/03/10 01:03:42;;;;;;;17.17;14.57;;;6.8;99.9;;;;;;;;;
2021/03/10 01:03:52;;;;;;;17.17;14.57;;;6.8;99.9;;;;;;;;;
2021/03/10 01:04:02;;;;;;;17.17;14.57;;;6.8;99.9;;;;;;;;;
2021/03/10 01:04:08;;;;;;;17.17;14.57;;;6.8;99.9;;;;;;;;;
2021/03/10 01:04:13;;;;;;;17.17;14.57;;;6.8;99.9;;;;;;;;;
2021/03/10 01:04:28;;;;;;;17.17;14.57;;;6.8;99.9;;;;;;;;;
2021/03/10 01:04:38;;;;;;;17.17;14.57;;;6.8;99.9;;;;;;;;;
2021/03/10 01:04:54;;;;;;;17.8;14.43;;;6.9;99.9;;;;;;;;;
2021/03/10 01:05:01;;;;;;;17.8;14.43;;;6.9;99.9;;;;;;;;;
2021/03/10 01:05:09;;;;;;;17.8;14.43;;;6.9;99.9;;;;;;;;;
2021/03/10 01:05:14;;;;;;;17.8;14.43;;;6.9;99.9;;;;;;;;;
2021/03/10 01:05:29;;;;;;;17.8;14.43;;;6.9;99.9;;;;;;;;;
2021/03/10 01:05:40;;;;;;;17.8;14.43;;;6.9;99.9;;;;;;;;;
2021/03/10 01:05:55;;;;;;;18.97;15.17;;;7;99.9;;;;;;;;;
2021/03/10 01:06:02;;;;;;;18.97;15.17;;;7;99.9;;;;;;;;;
2021/03/10 01:06:05;;;;;;;18.97;15.17;;;7;99.9;;;;;;;;;
2021/03/10 01:06:16;;;;;;;18.97;15.17;;;7;99.9;;;;;;;;;
2021/03/10 01:06:26;;;;;;;18.97;15.17;;;7;99.9;;;;;;;;;
2021/03/10 01:06:41;;;;;;;19.9;14.53;;;6.9;99.9;;;;;;;;;
2021/03/10 01:06:51;;;;;;;19.9;14.53;;;6.9;99.9;;;;;;;;;
2021/03/10 01:07:02;;;;;;;19.9;14.53;;;6.9;99.9;;;;;;;;;
2021/03/10 01:07:07;;;;;;;19.9;14.53;;;6.9;99.9;;;;;;;;;
2021/03/10 01:07:12;;;;;;;19.9;14.53;;;6.9;99.9;;;;;;;;;
2021/03/10 01:07:27;;;;;;;19.9;14.53;;;6.9;99.9;;;;;;;;;
2021/03/10 01:07:43;;;;;;;21.43;14.2;;;6.8;99.9;;;;;;;;;
2021/03/10 01:07:53;;;;;;;21.43;14.2;;;6.8;99.9;;;;;;;;;
2021/03/10 01:08:02;;;;;;;21.43;14.2;;;6.8;99.9;;;;;;;;;
2021/03/10 01:08:08;;;;;;;21.43;14.2;;;6.8;99.9;;;;;;;;;
2021/03/10 01:08:13;;;;;;;21.43;14.2;;;6.8;99.9;;;;;;;;;
2021/03/10 01:08:29;;;;;;;21.43;14.2;;;6.8;99.9;;;;;;;;;
2021/03/10 01:08:39;;;;;;;21.43;14.2;;;6.8;99.9;;;;;;;;;
2021/03/10 01:08:54;;;;;;;19.3;15.43;;;6.8;99.9;;;;;;;;;
2021/03/10 01:09:02;;;;;;;19.3;15.43;;;6.8;99.9;;;;;;;;;
2021/03/10 01:09:04;;;;;;;19.3;15.43;;;6.8;99.9;;;;;;;;;
2021/03/10 01:09:15;;;;;;;19.3;15.43;;;6.8;99.9;;;;;;;;;
2021/03/10 01:09:26;;;;;;;19.3;15.43;;;6.8;99.9;;;;;;;;;
2021/03/10 01:09:40;;;;;;;19.3;15.43;;;6.8;99.9;;;;;;;;;
2021/03/10 01:09:56;;;;;;;18.63;14.23;;;6.8;99.9;;;;;;;;;
2021/03/10 01:10:01;;;;;;;18.63;14.23;;;6.8;99.9;;;;;;;;;
2021/03/10 01:10:06;;;;;;;18.63;14.23;;;6.8;99.9;;;;;;;;;
2021/03/10 01:10:16;;;;;;;18.63;14.23;;;6.8;99.9;;;;;;;;;
2021/03/10 01:10:26;;;;;;;18.63;14.23;;;6.8;99.9;;;;;;;;;
2021/03/10 01:10:42;;;;;;;18.63;14.23;;;6.8;99.9;;;;;;;;;
2021/03/10 01:10:52;;;;;;;17.97;13.83;;;6.8;99.9;;;;;;;;;
2021/03/10 01:11:02;;;;;;;17.97;13.83;;;6.8;99.9;;;;;;;;;
2021/03/10 01:11:07;;;;;;;17.97;13.83;;;6.8;99.9;;;;;;;;;
2021/03/10 01:11:18;;;;;;;17.97;13.83;;;6.8;99.9;;;;;;;;;
2021/03/10 01:11:28;;;;;;;17.97;13.83;;;6.8;99.9;;;;;;;;;
2021/03/10 01:11:38;;;;;;;17.97;13.83;;;6.8;99.9;;;;;;;;;
2021/03/10 01:11:53;;;;;;;20;14.6;;;6.8;99.9;;;;;;;;;
2021/03/10 01:12:02;;;;;;;20;14.6;;;6.8;99.9;;;;;;;;;
2021/03/10 01:12:09;;;;;;;20;14.6;;;6.8;99.9;;;;;;;;;
2021/03/10 01:12:14;;;;;;;20;14.6;;;6.8;99.9;;;;;;;;;
2021/03/10 01:12:29;;;;;;;20;14.6;;;6.8;99.9;;;;;;;;;
2021/03/10 01:12:40;;;;;;;20;14.6;;;6.8;99.9;;;;;;;;;
2021/03/10 01:12:55;;;;;;;19.6;14.6;;;6.8;99.9;;;;;;;;;
2021/03/10 01:13:02;;;;;;;19.6;14.6;;;6.8;99.9;;;;;;;;;
2021/03/10 01:13:05;;;;;;;19.6;14.6;;;6.8;99.9;;;;;;;;;
2021/03/10 01:13:15;;;;;;;19.6;14.6;;;6.8;99.9;;;;;;;;;
2021/03/10 01:13:31;;;;;;;19.6;14.6;;;6.8;99.9;;;;;;;;;
2021/03/10 01:13:41;;;;;;;19.6;14.6;;;6.8;99.9;;;;;;;;;
2021/03/10 01:13:51;;;;;;;16.7;14.07;;;6.8;99.9;;;;;;;;;
2021/03/10 01:14:02;;;;;;;16.7;14.07;;;6.8;99.9;;;;;;;;;
2021/03/10 01:14:07;;;;;;;16.7;14.07;;;6.8;99.9;;;;;;;;;
2021/03/10 01:14:17;;;;;;;16.7;14.07;;;6.8;99.9;;;;;;;;;
2021/03/10 01:14:27;;;;;;;16.7;14.07;;;6.8;99.9;;;;;;;;;
2021/03/10 01:14:44;;;;;;;16.7;14.07;;;6.8;99.9;;;;;;;;;
2021/03/10 01:14:53;;;;;;;20.23;14.9;;;6.8;99.9;;;;;;;;;
2021/03/10 01:15:01;;;;;;;20.23;14.9;;;6.8;99.9;;;;;;;;;
2021/03/10 01:15:08;;;;;;;20.23;14.9;;;6.8;99.9;;;;;;;;;
2021/03/10 01:15:13;;;;;;;20.23;14.9;;;6.8;99.9;;;;;;;;;
2021/03/10 01:15:28;;;;;;;20.23;14.9;;;6.8;99.9;;;;;;;;;
2021/03/10 01:15:44;;;;;;;20.2;14.97;;;6.8;99.9;;;;;;;;;
2021/03/10 01:15:54;;;;;;;20.2;14.97;;;6.8;99.9;;;;;;;;;